sensor_id;sensor_type;location;lat;lon;timestamp;pressure;altitude;pressure_sealevel;temperature;humidity
52319;BME280;38258;51.148;14.068;2022-07-10T00:01:44;98747.41;;;10.36;100.00
52319;BME280;38258;51.148;14.068;2022-07-10T00:04:11;98738.03;;;10.27;100.00
52319;BME280;38258;51.148;14.068;2022-07-10T00:06:38;98738.59;;;10.43;100.00
52319;BME280;38258;51.148;14.068;2022-07-10T00:09:06;98731.53;;;10.47;100.00
52319;BME280;38258;51.148;14.068;2022-07-10T00:11:33;98719.34;;;10.46;100.00
52319;BME280;38258;51.148;14.068;2022-07-10T00:13:59;98749.59;;;10.58;100.00
52319;BME280;38258;51.148;14.068;2022-07-10T00:16:26;98737.66;;;10.46;100.00
52319;BME280;38258;51.148;14.068;2022-07-10T00:18:52;98741.13;;;10.48;100.00
52319;BME280;38258;51.148;14.068;2022-07-10T00:21:20;98725.44;;;10.46;100.00
52319;BME280;38258;51.148;14.068;2022-07-10T00:23:47;98726.44;;;10.39;100.00
52319;BME280;38258;51.148;14.068;2022-07-10T00:26:13;98739.25;;;10.53;100.00
52319;BME280;38258;51.148;14.068;2022-07-10T00:28:40;98705.50;;;10.42;100.00
52319;BME280;38258;51.148;14.068;2022-07-10T00:31:06;98734.75;;;10.58;100.00
52319;BME280;38258;51.148;14.068;2022-07-10T00:33:35;98734.63;;;10.65;100.00
52319;BME280;38258;51.148;14.068;2022-07-10T00:36:03;98695.94;;;10.41;100.00
52319;BME280;38258;51.148;14.068;2022-07-10T00:38:31;98732.63;;;10.76;100.00
52319;BME280;38258;51.148;14.068;2022-07-10T00:40:58;98697.38;;;10.55;100.00
52319;BME280;38258;51.148;14.068;2022-07-10T00:43:24;98736.13;;;10.75;100.00
52319;BME280;38258;51.148;14.068;2022-07-10T00:45:51;98736.00;;;10.80;100.00
52319;BME280;38258;51.148;14.068;2022-07-10T00:48:17;98737.72;;;10.82;100.00
52319;BME280;38258;51.148;14.068;2022-07-10T00:50:45;98738.59;;;10.81;100.00
52319;BME280;38258;51.148;14.068;2022-07-10T00:53:12;98707.84;;;10.53;100.00
52319;BME280;38258;51.148;14.068;2022-07-10T00:55:41;98741.16;;;10.83;100.00
52319;BME280;38258;51.148;14.068;2022-07-10T00:58:09;98737.00;;;10.75;100.00
52319;BME280;38258;51.148;14.068;2022-07-10T01:00:37;98742.31;;;10.72;100.00
52319;BME280;38258;51.148;14.068;2022-07-10T01:03:04;98732.75;;;10.71;100.00
52319;BME280;38258;51.148;14.068;2022-07-10T01:05:31;98720.66;;;10.66;100.00
52319;BME280;38258;51.148;14.068;2022-07-10T01:07:57;98737.09;;;10.71;100.00
52319;BME280;38258;51.148;14.068;2022-07-10T01:10:24;98739.63;;;10.74;100.00
52319;BME280;38258;51.148;14.068;2022-07-10T01:12:53;98731.97;;;10.66;100.00
52319;BME280;38258;51.148;14.068;2022-07-10T01:15:20;98742.44;;;10.66;100.00
52319;BME280;38258;51.148;14.068;2022-07-10T01:17:46;98725.16;;;10.59;100.00
52319;BME280;38258;51.148;14.068;2022-07-10T01:20:14;98734.75;;;10.58;100.00
52319;BME280;38258;51.148;14.068;2022-07-10T01:22:42;98730.69;;;10.45;100.00
52319;BME280;38258;51.148;14.068;2022-07-10T01:25:09;98739.16;;;10.58;100.00
52319;BME280;38258;51.148;14.068;2022-07-10T01:27:36;98736.72;;;10.50;100.00
52319;BME280;38258;51.148;14.068;2022-07-10T01:30:03;98741.22;;;10.43;100.00
52319;BME280;38258;51.148;14.068;2022-07-10T01:32:36;98735.72;;;10.54;100.00
52319;BME280;38258;51.148;14.068;2022-07-10T01:35:03;98735.75;;;10.53;100.00
52319;BME280;38258;51.148;14.068;2022-07-10T01:37:30;98733.28;;;10.46;100.00
52319;BME280;38258;51.148;14.068;2022-07-10T01:39:58;98730.44;;;10.57;100.00
52319;BME280;38258;51.148;14.068;2022-07-10T01:42:24;98724.56;;;10.46;100.00
52319;BME280;38258;51.148;14.068;2022-07-10T01:44:51;98728.97;;;10.45;100.00
52319;BME280;38258;51.148;14.068;2022-07-10T01:47:18;98702.22;;;10.31;100.00
52319;BME280;38258;51.148;14.068;2022-07-10T01:49:45;98727.81;;;10.57;100.00
52319;BME280;38258;51.148;14.068;2022-07-10T01:52:11;98728.59;;;10.61;100.00
52319;BME280;38258;51.148;14.068;2022-07-10T01:54:38;98725.16;;;10.59;100.00
52319;BME280;38258;51.148;14.068;2022-07-10T01:57:07;98727.81;;;10.57;100.00
52319;BME280;38258;51.148;14.068;2022-07-10T01:59:33;98724.34;;;10.57;100.00
52319;BME280;38258;51.148;14.068;2022-07-10T02:02:00;98723.41;;;10.59;100.00
52319;BME280;38258;51.148;14.068;2022-07-10T02:04:26;98714.00;;;10.52;100.00
52319;BME280;38258;51.148;14.068;2022-07-10T02:07:07;98716.50;;;10.57;100.00
52319;BME280;38258;51.148;14.068;2022-07-10T02:09:34;98724.44;;;10.52;100.00
52319;BME280;38258;51.148;14.068;2022-07-10T02:12:00;98720.06;;;10.53;100.00
52319;BME280;38258;51.148;14.068;2022-07-10T02:14:28;98717.44;;;10.54;100.00
52319;BME280;38258;51.148;14.068;2022-07-10T02:16:54;98718.16;;;10.59;100.00
52319;BME280;38258;51.148;14.068;2022-07-10T02:19:21;98706.25;;;10.46;100.00
52319;BME280;38258;51.148;14.068;2022-07-10T02:21:48;98715.69;;;10.55;100.00
52319;BME280;38258;51.148;14.068;2022-07-10T02:24:15;98714.00;;;10.52;100.00
52319;BME280;38258;51.148;14.068;2022-07-10T02:26:41;98716.59;;;10.52;100.00
52319;BME280;38258;51.148;14.068;2022-07-10T02:29:08;98712.16;;;10.56;100.00
52319;BME280;38258;51.148;14.068;2022-07-10T02:31:36;98709.59;;;10.53;100.00
52319;BME280;38258;51.148;14.068;2022-07-10T02:34:06;98700.28;;;10.39;100.00
52319;BME280;38258;51.148;14.068;2022-07-10T02:36:32;98706.25;;;10.48;100.00
52319;BME280;38258;51.148;14.068;2022-07-10T02:38:59;98707.25;;;10.40;100.00
52319;BME280;38258;51.148;14.068;2022-07-10T02:41:26;98699.13;;;10.53;100.00
52319;BME280;38258;51.148;14.068;2022-07-10T02:43:52;98707.72;;;10.59;100.00
52319;BME280;38258;51.148;14.068;2022-07-10T02:46:19;98705.16;;;10.56;100.00
52319;BME280;38258;51.148;14.068;2022-07-10T02:48:47;98694.97;;;10.45;100.00
52319;BME280;38258;51.148;14.068;2022-07-10T02:51:14;98704.16;;;10.62;100.00
52319;BME280;38258;51.148;14.068;2022-07-10T02:53:40;98703.44;;;10.57;100.00
52319;BME280;38258;51.148;14.068;2022-07-10T02:56:07;98696.47;;;10.56;100.00
52319;BME280;38258;51.148;14.068;2022-07-10T02:58:34;98707.59;;;10.66;100.00
52319;BME280;38258;51.148;14.068;2022-07-10T03:01:00;98694.81;;;10.52;100.00
52319;BME280;38258;51.148;14.068;2022-07-10T03:03:26;98703.44;;;10.55;100.00
52319;BME280;38258;51.148;14.068;2022-07-10T03:05:54;98704.34;;;10.54;100.00
52319;BME280;38258;51.148;14.068;2022-07-10T03:08:21;98698.22;;;10.55;100.00
52319;BME280;38258;51.148;14.068;2022-07-10T03:10:47;98698.28;;;10.52;100.00
52319;BME280;38258;51.148;14.068;2022-07-10T03:13:14;98701.56;;;10.62;100.00
52319;BME280;38258;51.148;14.068;2022-07-10T03:15:40;98693.00;;;10.55;100.00
52319;BME280;38258;51.148;14.068;2022-07-10T03:18:07;98686.31;;;10.42;100.00
52319;BME280;38258;51.148;14.068;2022-07-10T03:20:34;98701.72;;;10.54;100.00
52319;BME280;38258;51.148;14.068;2022-07-10T03:23:02;98697.56;;;10.45;100.00
52319;BME280;38258;51.148;14.068;2022-07-10T03:25:29;98687.00;;;10.50;100.00
52319;BME280;38258;51.148;14.068;2022-07-10T03:27:56;98691.44;;;10.46;100.00
52319;BME280;38258;51.148;14.068;2022-07-10T03:30:22;98687.84;;;10.51;100.00
52319;BME280;38258;51.148;14.068;2022-07-10T03:32:49;98693.69;;;10.62;100.00
52319;BME280;38258;51.148;14.068;2022-07-10T03:35:16;98685.25;;;10.51;100.00
52319;BME280;38258;51.148;14.068;2022-07-10T03:37:43;98678.19;;;10.54;100.00
52319;BME280;38258;51.148;14.068;2022-07-10T03:40:11;98677.19;;;10.60;100.00
52319;BME280;38258;51.148;14.068;2022-07-10T03:42:38;98679.00;;;10.56;100.00
52319;BME280;38258;51.148;14.068;2022-07-10T03:45:06;98673.59;;;10.64;100.00
52319;BME280;38258;51.148;14.068;2022-07-10T03:47:33;98675.41;;;10.62;100.00
52319;BME280;38258;51.148;14.068;2022-07-10T03:49:59;98660.78;;;10.53;100.00
52319;BME280;38258;51.148;14.068;2022-07-10T03:52:27;98668.63;;;10.53;100.00
52319;BME280;38258;51.148;14.068;2022-07-10T03:54:54;98672.88;;;10.57;100.00
52319;BME280;38258;51.148;14.068;2022-07-10T03:57:22;98671.78;;;10.68;100.00
52319;BME280;38258;51.148;14.068;2022-07-10T04:00:08;98672.56;;;10.71;100.00
52319;BME280;38258;51.148;14.068;2022-07-10T04:02:37;98668.34;;;10.66;100.00
52319;BME280;38258;51.148;14.068;2022-07-10T04:05:05;98669.06;;;10.72;100.00
52319;BME280;38258;51.148;14.068;2022-07-10T04:07:33;98669.78;;;10.78;100.00
52319;BME280;38258;51.148;14.068;2022-07-10T04:10:00;98657.91;;;10.64;100.00
52319;BME280;38258;51.148;14.068;2022-07-10T04:12:28;98670.00;;;10.68;100.00
52319;BME280;38258;51.148;14.068;2022-07-10T04:14:55;98671.59;;;10.75;100.00
52319;BME280;38258;51.148;14.068;2022-07-10T04:17:46;98668.81;;;10.82;100.00
52319;BME280;38258;51.148;14.068;2022-07-10T04:20:14;98660.19;;;10.78;100.00
52319;BME280;38258;51.148;14.068;2022-07-10T04:22:40;98669.59;;;10.85;100.00
52319;BME280;38258;51.148;14.068;2022-07-10T04:25:08;98652.19;;;10.83;100.00
52319;BME280;38258;51.148;14.068;2022-07-10T04:27:36;98663.53;;;10.85;100.00
52319;BME280;38258;51.148;14.068;2022-07-10T04:30:04;98674.69;;;10.92;100.00
52319;BME280;38258;51.148;14.068;2022-07-10T04:32:31;98667.41;;;11.03;100.00
52319;BME280;38258;51.148;14.068;2022-07-10T04:34:58;98663.94;;;11.02;100.00
52319;BME280;38258;51.148;14.068;2022-07-10T04:37:26;98672.50;;;11.09;100.00
52319;BME280;38258;51.148;14.068;2022-07-10T04:39:53;98669.13;;;11.04;100.00
52319;BME280;38258;51.148;14.068;2022-07-10T04:42:20;98667.38;;;11.05;100.00
52319;BME280;38258;51.148;14.068;2022-07-10T04:44:48;98664.44;;;11.17;100.00
52319;BME280;38258;51.148;14.068;2022-07-10T04:47:15;98671.56;;;11.12;100.00
52319;BME280;38258;51.148;14.068;2022-07-10T04:49:42;98659.34;;;11.11;100.00
52319;BME280;38258;51.148;14.068;2022-07-10T04:52:09;98665.47;;;11.11;100.00
52319;BME280;38258;51.148;14.068;2022-07-10T04:54:35;98662.06;;;11.08;100.00
52319;BME280;38258;51.148;14.068;2022-07-10T04:57:03;98672.38;;;11.14;100.00
52319;BME280;38258;51.148;14.068;2022-07-10T04:59:30;98676.72;;;11.15;100.00
52319;BME280;38258;51.148;14.068;2022-07-10T05:01:58;98673.94;;;11.21;100.00
52319;BME280;38258;51.148;14.068;2022-07-10T05:04:24;98678.72;;;11.05;100.00
52319;BME280;38258;51.148;14.068;2022-07-10T05:06:51;98659.28;;;11.14;100.00
52319;BME280;38258;51.148;14.068;2022-07-10T05:09:18;98655.19;;;11.03;100.00
52319;BME280;38258;51.148;14.068;2022-07-10T05:11:45;98655.84;;;11.12;100.00
52319;BME280;38258;51.148;14.068;2022-07-10T05:14:12;98653.78;;;11.23;100.00
52319;BME280;38258;51.148;14.068;2022-07-10T05:16:39;98648.53;;;11.25;100.00
52319;BME280;38258;51.148;14.068;2022-07-10T05:19:07;98647.50;;;11.30;100.00
52319;BME280;38258;51.148;14.068;2022-07-10T05:21:34;98653.47;;;11.36;100.00
52319;BME280;38258;51.148;14.068;2022-07-10T05:24:01;98650.53;;;11.46;100.00
52319;BME280;38258;51.148;14.068;2022-07-10T05:26:27;98660.09;;;11.49;100.00
52319;BME280;38258;51.148;14.068;2022-07-10T05:28:54;98653.94;;;11.50;100.00
52319;BME280;38258;51.148;14.068;2022-07-10T05:31:21;98655.09;;;11.71;100.00
52319;BME280;38258;51.148;14.068;2022-07-10T05:33:48;98677.50;;;11.52;100.00
52319;BME280;38258;51.148;14.068;2022-07-10T05:36:16;98668.41;;;11.64;100.00
52319;BME280;38258;51.148;14.068;2022-07-10T05:38:43;98676.13;;;11.70;100.00
52319;BME280;38258;51.148;14.068;2022-07-10T05:41:10;98674.88;;;11.52;100.00
52319;BME280;38258;51.148;14.068;2022-07-10T05:43:37;98674.13;;;11.46;100.00
52319;BME280;38258;51.148;14.068;2022-07-10T05:46:03;98671.22;;;11.57;100.00
52319;BME280;38258;51.148;14.068;2022-07-10T05:48:31;98666.78;;;11.91;100.00
52319;BME280;38258;51.148;14.068;2022-07-10T05:50:57;98675.59;;;11.88;100.00
52319;BME280;38258;51.148;14.068;2022-07-10T05:53:26;98671.59;;;12.07;100.00
52319;BME280;38258;51.148;14.068;2022-07-10T05:55:52;98665.09;;;11.88;100.00
52319;BME280;38258;51.148;14.068;2022-07-10T05:58:19;98672.06;;;11.90;100.00
52319;BME280;38258;51.148;14.068;2022-07-10T06:00:46;98673.13;;;11.82;100.00
52319;BME280;38258;51.148;14.068;2022-07-10T06:03:15;98672.31;;;11.80;100.00
52319;BME280;38258;51.148;14.068;2022-07-10T06:05:42;98678.13;;;11.90;100.00
52319;BME280;38258;51.148;14.068;2022-07-10T06:08:10;98678.78;;;11.68;100.00
52319;BME280;38258;51.148;14.068;2022-07-10T06:10:38;98671.63;;;11.73;100.00
52319;BME280;38258;51.148;14.068;2022-07-10T06:13:05;98679.81;;;11.63;100.00
52319;BME280;38258;51.148;14.068;2022-07-10T06:15:32;98678.75;;;11.70;100.00
52319;BME280;38258;51.148;14.068;2022-07-10T06:17:59;98655.16;;;11.70;100.00
52319;BME280;38258;51.148;14.068;2022-07-10T06:20:26;98670.44;;;11.85;100.00
52319;BME280;38258;51.148;14.068;2022-07-10T06:22:53;98675.72;;;11.84;100.00
52319;BME280;38258;51.148;14.068;2022-07-10T06:25:20;98668.41;;;11.95;100.00
52319;BME280;38258;51.148;14.068;2022-07-10T06:27:48;98666.13;;;11.83;100.00
52319;BME280;38258;51.148;14.068;2022-07-10T06:30:15;98670.25;;;12.22;100.00
52319;BME280;38258;51.148;14.068;2022-07-10T06:32:42;98660.97;;;12.40;100.00
52319;BME280;38258;51.148;14.068;2022-07-10T06:35:10;98663.63;;;12.38;100.00
52319;BME280;38258;51.148;14.068;2022-07-10T06:37:37;98660.09;;;12.68;100.00
52319;BME280;38258;51.148;14.068;2022-07-10T06:40:11;98659.59;;;12.83;100.00
52319;BME280;38258;51.148;14.068;2022-07-10T06:42:39;98661.47;;;13.05;100.00
52319;BME280;38258;51.148;14.068;2022-07-10T06:45:14;98651.75;;;12.82;100.00
52319;BME280;38258;51.148;14.068;2022-07-10T06:47:42;98662.16;;;12.58;100.00
52319;BME280;38258;51.148;14.068;2022-07-10T06:50:29;98656.31;;;12.77;100.00
52319;BME280;38258;51.148;14.068;2022-07-10T06:52:57;98659.53;;;12.85;100.00
52319;BME280;38258;51.148;14.068;2022-07-10T06:55:24;98662.16;;;12.85;100.00
52319;BME280;38258;51.148;14.068;2022-07-10T06:57:52;98661.19;;;12.61;100.00
52319;BME280;38258;51.148;14.068;2022-07-10T07:00:20;98660.88;;;12.70;100.00
52319;BME280;38258;51.148;14.068;2022-07-10T07:02:47;98662.59;;;12.98;100.00
52319;BME280;38258;51.148;14.068;2022-07-10T07:05:15;98654.22;;;13.12;100.00
52319;BME280;38258;51.148;14.068;2022-07-10T07:07:42;98660.06;;;13.22;100.00
52319;BME280;38258;51.148;14.068;2022-07-10T07:10:10;98661.44;;;12.80;100.00
52319;BME280;38258;51.148;14.068;2022-07-10T07:12:39;98667.72;;;12.76;100.00
52319;BME280;38258;51.148;14.068;2022-07-10T07:15:08;98660.31;;;12.33;100.00
52319;BME280;38258;51.148;14.068;2022-07-10T07:17:40;98658.47;;;12.35;100.00
52319;BME280;38258;51.148;14.068;2022-07-10T07:20:24;98661.34;;;12.56;100.00
52319;BME280;38258;51.148;14.068;2022-07-10T07:23:08;98647.31;;;12.28;100.00
52319;BME280;38258;51.148;14.068;2022-07-10T07:25:38;98671.44;;;12.41;100.00
52319;BME280;38258;51.148;14.068;2022-07-10T07:28:07;98662.97;;;12.32;100.00
52319;BME280;38258;51.148;14.068;2022-07-10T07:30:34;98678.81;;;12.57;100.00
52319;BME280;38258;51.148;14.068;2022-07-10T07:33:03;98677.34;;;12.48;100.00
52319;BME280;38258;51.148;14.068;2022-07-10T07:35:30;98673.78;;;12.21;100.00
52319;BME280;38258;51.148;14.068;2022-07-10T07:37:56;98674.13;;;12.38;100.00
52319;BME280;38258;51.148;14.068;2022-07-10T07:40:23;98675.66;;;12.46;100.00
52319;BME280;38258;51.148;14.068;2022-07-10T07:42:50;98676.38;;;12.78;100.00
52319;BME280;38258;51.148;14.068;2022-07-10T07:45:19;98668.09;;;12.63;100.00
52319;BME280;38258;51.148;14.068;2022-07-10T07:47:48;98674.16;;;12.92;100.00
52319;BME280;38258;51.148;14.068;2022-07-10T07:50:18;98668.81;;;12.95;100.00
52319;BME280;38258;51.148;14.068;2022-07-10T07:52:45;98669.41;;;12.50;100.00
52319;BME280;38258;51.148;14.068;2022-07-10T07:55:13;98677.97;;;12.28;100.00
52319;BME280;38258;51.148;14.068;2022-07-10T07:57:41;98671.38;;;12.14;100.00
52319;BME280;38258;51.148;14.068;2022-07-10T08:00:09;98673.69;;;12.24;100.00
52319;BME280;38258;51.148;14.068;2022-07-10T08:02:39;98664.00;;;12.54;100.00
52319;BME280;38258;51.148;14.068;2022-07-10T08:05:07;98671.00;;;12.82;100.00
52319;BME280;38258;51.148;14.068;2022-07-10T08:07:37;98661.44;;;12.80;100.00
52319;BME280;38258;51.148;14.068;2022-07-10T08:10:06;98664.13;;;13.56;100.00
52319;BME280;38258;51.148;14.068;2022-07-10T08:12:34;98657.66;;;14.12;100.00
52319;BME280;38258;51.148;14.068;2022-07-10T08:15:01;98652.97;;;14.21;100.00
52319;BME280;38258;51.148;14.068;2022-07-10T08:17:28;98644.38;;;13.69;100.00
52319;BME280;38258;51.148;14.068;2022-07-10T08:19:55;98652.22;;;13.20;100.00
52319;BME280;38258;51.148;14.068;2022-07-10T08:22:22;98655.91;;;13.14;100.00
52319;BME280;38258;51.148;14.068;2022-07-10T08:24:50;98662.06;;;12.88;100.00
52319;BME280;38258;51.148;14.068;2022-07-10T08:27:16;98653.84;;;12.97;100.00
52319;BME280;38258;51.148;14.068;2022-07-10T08:29:43;98652.50;;;12.85;100.00
52319;BME280;38258;51.148;14.068;2022-07-10T08:32:10;98664.34;;;12.97;100.00
52319;BME280;38258;51.148;14.068;2022-07-10T08:34:36;98663.50;;;12.70;100.00
52319;BME280;38258;51.148;14.068;2022-07-10T08:37:03;98660.97;;;12.40;100.00
52319;BME280;38258;51.148;14.068;2022-07-10T08:39:31;98657.97;;;12.52;100.00
52319;BME280;38258;51.148;14.068;2022-07-10T08:41:59;98644.78;;;12.54;100.00
52319;BME280;38258;51.148;14.068;2022-07-10T08:44:26;98667.00;;;12.70;100.00
52319;BME280;38258;51.148;14.068;2022-07-10T08:46:54;98663.34;;;12.48;100.00
52319;BME280;38258;51.148;14.068;2022-07-10T08:49:26;98672.63;;;12.31;100.00
52319;BME280;38258;51.148;14.068;2022-07-10T08:51:58;98673.81;;;12.19;100.00
52319;BME280;38258;51.148;14.068;2022-07-10T08:54:27;98658.69;;;12.29;100.00
52319;BME280;38258;51.148;14.068;2022-07-10T08:56:56;98676.50;;;12.75;100.00
52319;BME280;38258;51.148;14.068;2022-07-10T08:59:24;98667.88;;;12.96;100.00
52319;BME280;38258;51.148;14.068;2022-07-10T09:01:51;98655.88;;;13.16;100.00
52319;BME280;38258;51.148;14.068;2022-07-10T09:04:20;98666.22;;;13.21;100.00
52319;BME280;38258;51.148;14.068;2022-07-10T09:06:47;98673.16;;;13.49;100.00
52319;BME280;38258;51.148;14.068;2022-07-10T09:09:14;98676.78;;;13.45;99.90
52319;BME280;38258;51.148;14.068;2022-07-10T09:11:41;98670.34;;;13.53;99.11
52319;BME280;38258;51.148;14.068;2022-07-10T09:14:09;98680.06;;;14.23;97.43
52319;BME280;38258;51.148;14.068;2022-07-10T09:16:40;98670.72;;;14.38;93.96
52319;BME280;38258;51.148;14.068;2022-07-10T09:19:18;98660.28;;;14.12;94.54
52319;BME280;38258;51.148;14.068;2022-07-10T09:21:47;98665.47;;;13.92;97.81
52319;BME280;38258;51.148;14.068;2022-07-10T09:24:14;98653.50;;;13.59;100.00
52319;BME280;38258;51.148;14.068;2022-07-10T09:26:57;98671.63;;;13.67;98.99
52319;BME280;38258;51.148;14.068;2022-07-10T09:29:26;98672.09;;;14.02;98.26
52319;BME280;38258;51.148;14.068;2022-07-10T09:31:55;98676.66;;;13.97;96.10
52319;BME280;38258;51.148;14.068;2022-07-10T09:34:37;98674.09;;;13.95;94.57
52319;BME280;38258;51.148;14.068;2022-07-10T09:37:23;98671.25;;;13.78;93.30
52319;BME280;38258;51.148;14.068;2022-07-10T09:39:55;98670.88;;;13.87;90.77
52319;BME280;38258;51.148;14.068;2022-07-10T09:42:28;98678.44;;;14.20;90.22
52319;BME280;38258;51.148;14.068;2022-07-10T09:45:18;98682.34;;;14.54;90.55
52319;BME280;38258;51.148;14.068;2022-07-10T09:47:54;98675.19;;;14.36;91.76
52319;BME280;38258;51.148;14.068;2022-07-10T09:50:24;98667.78;;;13.99;90.35
52319;BME280;38258;51.148;14.068;2022-07-10T09:52:53;98661.22;;;13.64;91.56
52319;BME280;38258;51.148;14.068;2022-07-10T09:55:25;98675.34;;;13.85;94.12
52319;BME280;38258;51.148;14.068;2022-07-10T09:58:06;98672.44;;;13.43;92.94
52319;BME280;38258;51.148;14.068;2022-07-10T10:00:34;98677.09;;;13.61;92.80
52319;BME280;38258;51.148;14.068;2022-07-10T10:03:04;98670.63;;;13.71;91.99
52319;BME280;38258;51.148;14.068;2022-07-10T10:05:37;98664.19;;;13.78;90.64
52319;BME280;38258;51.148;14.068;2022-07-10T10:08:12;98677.66;;;13.94;90.52
52319;BME280;38258;51.148;14.068;2022-07-10T10:10:45;98674.59;;;14.05;89.48
52319;BME280;38258;51.148;14.068;2022-07-10T10:13:15;98669.09;;;13.64;89.02
52319;BME280;38258;51.148;14.068;2022-07-10T10:15:43;98677.94;;;13.87;90.75
52319;BME280;38258;51.148;14.068;2022-07-10T10:18:12;98671.47;;;13.95;93.39
52319;BME280;38258;51.148;14.068;2022-07-10T10:20:40;98671.97;;;14.05;92.15
52319;BME280;38258;51.148;14.068;2022-07-10T10:23:13;98671.81;;;14.32;90.83
52319;BME280;38258;51.148;14.068;2022-07-10T10:25:40;98667.38;;;14.10;88.62
52319;BME280;38258;51.148;14.068;2022-07-10T10:28:10;98671.84;;;14.08;87.19
52319;BME280;38258;51.148;14.068;2022-07-10T10:30:39;98665.31;;;14.19;85.70
52319;BME280;38258;51.148;14.068;2022-07-10T10:33:41;98665.03;;;14.49;84.13
52319;BME280;38258;51.148;14.068;2022-07-10T10:36:10;98666.63;;;14.75;77.87
52319;BME280;38258;51.148;14.068;2022-07-10T10:38:59;98666.91;;;14.90;74.35
52319;BME280;38258;51.148;14.068;2022-07-10T10:41:27;98668.91;;;15.47;73.43
52319;BME280;38258;51.148;14.068;2022-07-10T10:44:22;98672.91;;;14.71;71.96
52319;BME280;38258;51.148;14.068;2022-07-10T10:46:57;98666.00;;;14.24;73.78
52319;BME280;38258;51.148;14.068;2022-07-10T10:49:48;98679.50;;;13.67;74.84
52319;BME280;38258;51.148;14.068;2022-07-10T10:52:15;98632.25;;;13.65;76.93
52319;BME280;38258;51.148;14.068;2022-07-10T10:55:15;98675.31;;;13.87;76.22
52319;BME280;38258;51.148;14.068;2022-07-10T10:57:42;98676.25;;;13.84;75.59
52319;BME280;38258;51.148;14.068;2022-07-10T11:00:29;98662.41;;;14.03;75.75
52319;BME280;38258;51.148;14.068;2022-07-10T11:03:16;98678.94;;;14.75;73.69
52319;BME280;38258;51.148;14.068;2022-07-10T11:05:45;98673.97;;;14.89;73.45
52319;BME280;38258;51.148;14.068;2022-07-10T11:08:13;98670.63;;;15.06;71.90
52319;BME280;38258;51.148;14.068;2022-07-10T11:10:42;98683.88;;;15.05;68.97
52319;BME280;38258;51.148;14.068;2022-07-10T11:13:10;98682.06;;;15.05;69.43
52319;BME280;38258;51.148;14.068;2022-07-10T11:15:38;98689.13;;;15.25;69.64
52319;BME280;38258;51.148;14.068;2022-07-10T11:18:07;98682.66;;;14.47;75.18
52319;BME280;38258;51.148;14.068;2022-07-10T11:20:35;98686.38;;;14.19;77.63
52319;BME280;38258;51.148;14.068;2022-07-10T11:23:17;98686.38;;;13.95;82.10
52319;BME280;38258;51.148;14.068;2022-07-10T11:25:52;98690.97;;;14.13;81.25
52319;BME280;38258;51.148;14.068;2022-07-10T11:28:34;98692.56;;;14.40;79.91
52319;BME280;38258;51.148;14.068;2022-07-10T11:31:04;98688.28;;;14.82;78.36
52319;BME280;38258;51.148;14.068;2022-07-10T11:33:39;98697.38;;;15.18;78.47
52319;BME280;38258;51.148;14.068;2022-07-10T11:36:10;98698.97;;;14.79;79.43
52319;BME280;38258;51.148;14.068;2022-07-10T11:38:40;98679.25;;;14.89;78.79
52319;BME280;38258;51.148;14.068;2022-07-10T11:41:17;98690.59;;;14.67;77.27
52319;BME280;38258;51.148;14.068;2022-07-10T11:43:49;98695.56;;;14.97;79.41
52319;BME280;38258;51.148;14.068;2022-07-10T11:46:17;98685.28;;;14.91;76.99
52319;BME280;38258;51.148;14.068;2022-07-10T11:48:46;98687.00;;;14.92;73.87
52319;BME280;38258;51.148;14.068;2022-07-10T11:51:17;98680.97;;;15.32;73.00
52319;BME280;38258;51.148;14.068;2022-07-10T11:53:54;98681.09;;;15.49;71.11
52319;BME280;38258;51.148;14.068;2022-07-10T11:56:21;98680.16;;;15.71;71.85
52319;BME280;38258;51.148;14.068;2022-07-10T11:58:59;98681.78;;;15.74;70.10
52319;BME280;38258;51.148;14.068;2022-07-10T12:01:27;98673.22;;;15.68;70.40
52319;BME280;38258;51.148;14.068;2022-07-10T12:04:00;98667.84;;;15.51;69.19
52319;BME280;38258;51.148;14.068;2022-07-10T12:06:30;98674.31;;;15.44;70.75
52319;BME280;38258;51.148;14.068;2022-07-10T12:09:02;98679.25;;;15.51;70.50
52319;BME280;38258;51.148;14.068;2022-07-10T12:11:29;98674.97;;;15.28;71.46
52319;BME280;38258;51.148;14.068;2022-07-10T12:14:09;98681.47;;;14.54;75.96
52319;BME280;38258;51.148;14.068;2022-07-10T12:16:37;98678.53;;;14.39;76.92
52319;BME280;38258;51.148;14.068;2022-07-10T12:19:04;98683.69;;;14.20;76.65
52319;BME280;38258;51.148;14.068;2022-07-10T12:21:32;98691.75;;;14.16;78.83
52319;BME280;38258;51.148;14.068;2022-07-10T12:23:59;98689.56;;;13.79;81.88
52319;BME280;38258;51.148;14.068;2022-07-10T12:26:33;98698.16;;;14.08;81.67
52319;BME280;38258;51.148;14.068;2022-07-10T12:29:00;98695.78;;;14.24;80.92
52319;BME280;38258;51.148;14.068;2022-07-10T12:31:28;98704.47;;;14.50;77.14
52319;BME280;38258;51.148;14.068;2022-07-10T12:33:58;98693.63;;;14.58;75.88
52319;BME280;38258;51.148;14.068;2022-07-10T12:36:41;98708.09;;;14.46;76.58
52319;BME280;38258;51.148;14.068;2022-07-10T12:39:10;98704.03;;;14.61;75.96
52319;BME280;38258;51.148;14.068;2022-07-10T12:42:00;98713.72;;;14.83;76.89
52319;BME280;38258;51.148;14.068;2022-07-10T12:44:36;98695.03;;;14.89;71.95
52319;BME280;38258;51.148;14.068;2022-07-10T12:47:04;98700.97;;;14.94;71.45
52319;BME280;38258;51.148;14.068;2022-07-10T12:49:54;98698.69;;;15.49;69.17
52319;BME280;38258;51.148;14.068;2022-07-10T12:52:22;98683.34;;;15.78;69.01
52319;BME280;38258;51.148;14.068;2022-07-10T12:55:04;98686.56;;;16.05;68.36